Time;durP1;ratioP1;P1;durP2;ratioP2;P2;SDS_P1;SDS_P2;PMS_P1;PMS_P2;Temp;Humidity;BMP_temperature;BMP_pressure;BME280_temperature;BME280_humidity;BME280_pressure;Samples;Min_cycle;Max_cycle;Signal;HPM_P1;HPM_P2
2022/05/04 00:00:54;;;;;;;;;;;;;;;;;;4982374;28;20736;-65
2022/05/04 00:03:39;;;;;;;;;;;;;;;;;;4990852;28;19992;-65
2022/05/04 00:06:26;;;;;;;;;;;;;;;;;;4981094;28;19972;-65
2022/05/04 00:09:11;;;;;;;;;;;;;;;;;;4974024;28;19921;-64
2022/05/04 00:11:56;;;;;;;;;;;;;;;;;;4974478;28;19936;-64
2022/05/04 00:14:42;;;;;;;;;;;;;;;;;;4989365;28;19914;-64
2022/05/04 00:17:27;;;;;;;;;;;;;;;;;;4983762;28;19926;-63
2022/05/04 00:20:12;;;;;;;;;;;;;;;;;;4981569;28;19960;-64
2022/05/04 00:22:57;;;;;;;;;;;;;;;;;;4971513;28;19917;-65
2022/05/04 00:25:42;;;;;;;;;;;;;;;;;;4988064;28;19914;-68
2022/05/04 00:28:27;;;;;;;;;;;;;;;;;;4994865;28;20008;-69
2022/05/04 00:31:12;;;;;;;;;;;;;;;;;;4982243;28;19921;-68
2022/05/04 00:33:57;;;;;;;;;;;;;;;;;;4972771;28;20004;-68
2022/05/04 00:36:43;;;;;;;;;;;;;;;;;;4979271;28;19961;-70
2022/05/04 00:39:28;;;;;;;;;;;;;;;;;;4986654;28;19914;-68
2022/05/04 00:42:13;;;;;;;;;;;;;;;;;;4999886;28;19925;-62
2022/05/04 00:44:58;;;;;;;;;;;;;;;;;;4970108;28;19920;-62
2022/05/04 00:47:43;;;;;;;;;;;;;;;;;;4982134;28;19914;-64
2022/05/04 00:50:28;;;;;;;;;;;;;;;;;;4986691;28;19925;-63
2022/05/04 00:53:13;;;;;;;;;;;;;;;;;;4984894;28;20004;-65
2022/05/04 00:56:00;;;;;;;;;;;;;;;;;;4983793;28;19974;-66
2022/05/04 00:58:57;;;;;;;;;;;;;;;;;;4985454;28;19917;-67
2022/05/04 01:01:43;;;;;;;;;;;;;;;;;;4994223;28;20078;-64
2022/05/04 01:04:28;;;;;;;;;;;;;;;;;;4999312;28;19921;-64
2022/05/04 01:07:14;;;;;;;;;;;;;;;;;;5003588;28;20364;-65
2022/05/04 01:09:59;;;;;;;;;;;;;;;;;;4957275;28;19921;-68
2022/05/04 01:12:44;;;;;;;;;;;;;;;;;;4975815;28;19988;-67
2022/05/04 01:15:29;;;;;;;;;;;;;;;;;;4980029;28;19917;-65
2022/05/04 01:18:14;;;;;;;;;;;;;;;;;;4982838;28;19974;-66
2022/05/04 01:21:00;;;;;;;;;;;;;;;;;;4972849;28;20018;-67
2022/05/04 01:23:45;;;;;;;;;;;;;;;;;;4985333;28;19914;-69
2022/05/04 01:26:30;;;;;;;;;;;;;;;;;;4986070;28;20331;-67
2022/05/04 01:29:15;;;;;;;;;;;;;;;;;;4985579;28;19971;-69
2022/05/04 01:32:00;;;;;;;;;;;;;;;;;;4988195;28;19920;-68
2022/05/04 01:34:45;;;;;;;;;;;;;;;;;;4977797;28;20403;-68
2022/05/04 01:37:30;;;;;;;;;;;;;;;;;;4982693;28;20389;-69
2022/05/04 01:40:16;;;;;;;;;;;;;;;;;;4988055;28;20129;-67
2022/05/04 01:43:01;;;;;;;;;;;;;;;;;;5002259;28;20013;-66
2022/05/04 01:45:46;;;;;;;;;;;;;;;;;;4971924;28;19914;-66
2022/05/04 01:48:31;;;;;;;;;;;;;;;;;;4977788;28;19928;-65
2022/05/04 01:51:16;;;;;;;;;;;;;;;;;;4987556;28;20008;-65
2022/05/04 01:54:01;;;;;;;;;;;;;;;;;;5003038;28;19922;-65
2022/05/04 01:56:46;;;;;;;;;;;;;;;;;;4988888;28;19922;-65
2022/05/04 01:59:32;;;;;;;;;;;;;;;;;;4976198;28;19921;-67
2022/05/04 02:02:17;;;;;;;;;;;;;;;;;;4983654;28;19924;-64
2022/05/04 02:05:02;;;;;;;;;;;;;;;;;;4988612;28;19914;-63
2022/05/04 02:07:47;;;;;;;;;;;;;;;;;;5001986;28;19960;-64
2022/05/04 02:10:32;;;;;;;;;;;;;;;;;;4976083;28;20382;-64
2022/05/04 02:13:18;;;;;;;;;;;;;;;;;;4975069;28;19914;-63
2022/05/04 02:16:03;;;;;;;;;;;;;;;;;;4990229;28;20416;-62
2022/05/04 02:18:48;;;;;;;;;;;;;;;;;;4988032;28;19933;-62
2022/05/04 02:21:33;;;;;;;;;;;;;;;;;;4981101;28;20274;-64
2022/05/04 02:24:18;;;;;;;;;;;;;;;;;;4974787;28;19913;-62
2022/05/04 02:27:04;;;;;;;;;;;;;;;;;;4968849;28;20020;-63
2022/05/04 02:29:49;;;;;;;;;;;;;;;;;;4989174;28;19929;-63
2022/05/04 02:32:34;;;;;;;;;;;;;;;;;;5002333;28;20194;-66
2022/05/04 02:38:23;;;;;;;;;;;;;;;;;;4978109;28;20012;-66
2022/05/04 02:41:08;;;;;;;;;;;;;;;;;;4985281;28;20005;-65
2022/05/04 02:43:53;;;;;;;;;;;;;;;;;;4982825;28;19918;-68
2022/05/04 02:46:38;;;;;;;;;;;;;;;;;;4978318;28;20076;-64
2022/05/04 02:49:24;;;;;;;;;;;;;;;;;;4991238;28;20024;-68
2022/05/04 02:52:09;;;;;;;;;;;;;;;;;;4989658;28;19921;-69
2022/05/04 02:54:54;;;;;;;;;;;;;;;;;;5001348;28;19921;-69
2022/05/04 02:57:39;;;;;;;;;;;;;;;;;;4987376;28;20301;-69
2022/05/04 03:00:25;;;;;;;;;;;;;;;;;;4969865;28;19928;-67
2022/05/04 03:03:10;;;;;;;;;;;;;;;;;;4987159;28;19913;-69
2022/05/04 03:05:56;;;;;;;;;;;;;;;;;;4978287;28;19910;-68
2022/05/04 03:08:41;;;;;;;;;;;;;;;;;;4983967;28;19918;-67
2022/05/04 03:14:30;;;;;;;;;;;;;;;;;;4974418;28;19957;-67
2022/05/04 03:17:15;;;;;;;;;;;;;;;;;;4985840;28;19921;-65
2022/05/04 03:20:00;;;;;;;;;;;;;;;;;;4988018;28;20000;-65
2022/05/04 03:22:45;;;;;;;;;;;;;;;;;;4985086;28;19971;-66
2022/05/04 03:25:30;;;;;;;;;;;;;;;;;;4977777;28;20012;-66
2022/05/04 03:28:15;;;;;;;;;;;;;;;;;;4984546;28;19914;-65
2022/05/04 03:31:01;;;;;;;;;;;;;;;;;;4988009;28;19925;-65
2022/05/04 03:33:46;;;;;;;;;;;;;;;;;;4974977;28;20016;-67
2022/05/04 03:36:31;;;;;;;;;;;;;;;;;;4977240;28;19949;-65
2022/05/04 03:39:16;;;;;;;;;;;;;;;;;;4990717;28;19913;-65
2022/05/04 03:42:01;;;;;;;;;;;;;;;;;;4987680;28;20005;-65
2022/05/04 03:44:46;;;;;;;;;;;;;;;;;;4999605;28;19922;-64
2022/05/04 03:47:31;;;;;;;;;;;;;;;;;;4976164;28;20025;-65
2022/05/04 03:50:17;;;;;;;;;;;;;;;;;;4975824;28;19972;-65
2022/05/04 03:53:02;;;;;;;;;;;;;;;;;;4987564;28;19996;-64
2022/05/04 03:55:47;;;;;;;;;;;;;;;;;;4984223;28;19921;-65
2022/05/04 03:58:32;;;;;;;;;;;;;;;;;;4973589;28;19917;-63
2022/05/04 04:01:18;;;;;;;;;;;;;;;;;;4970490;28;19913;-62
2022/05/04 04:04:03;;;;;;;;;;;;;;;;;;4986121;28;20028;-64
2022/05/04 04:06:49;;;;;;;;;;;;;;;;;;4987136;28;19956;-64
2022/05/04 04:09:34;;;;;;;;;;;;;;;;;;4992534;28;20208;-64
2022/05/04 04:12:19;;;;;;;;;;;;;;;;;;4972382;28;19916;-65
2022/05/04 04:15:13;;;;;;;;;;;;;;;;;;5092631;27;20394;-66
2022/05/04 04:17:58;;;;;;;;;;;;;;;;;;5088313;28;19912;-66
2022/05/04 04:23:48;;;;;;;;;;;;;;;;;;5095046;28;19920;-63
2022/05/04 04:26:33;;;;;;;;;;;;;;;;;;5125249;27;20662;-64
2022/05/04 04:29:18;;;;;;;;;;;;;;;;;;5109734;27;19956;-64
2022/05/04 04:32:03;;;;;;;;;;;;;;;;;;5081713;28;19921;-64
2022/05/04 04:34:48;;;;;;;;;;;;;;;;;;5080748;28;19921;-63
2022/05/04 04:37:33;;;;;;;;;;;;;;;;;;5115918;27;20398;-63
2022/05/04 04:40:18;;;;;;;;;;;;;;;;;;5083435;28;19909;-63
2022/05/04 04:43:03;;;;;;;;;;;;;;;;;;5086866;28;20097;-65
2022/05/04 04:45:49;;;;;;;;;;;;;;;;;;5102178;27;19912;-64
2022/05/04 04:48:34;;;;;;;;;;;;;;;;;;5068534;28;19912;-67
2022/05/04 04:51:19;;;;;;;;;;;;;;;;;;5110196;27;19923;-66
2022/05/04 04:54:04;;;;;;;;;;;;;;;;;;5108827;27;19949;-68
2022/05/04 04:56:49;;;;;;;;;;;;;;;;;;5075769;28;19926;-65
2022/05/04 04:59:34;;;;;;;;;;;;;;;;;;5109130;27;19917;-67
2022/05/04 05:02:19;;;;;;;;;;;;;;;;;;5098060;27;20267;-66
2022/05/04 05:05:05;;;;;;;;;;;;;;;;;;5105542;28;19913;-64
2022/05/04 05:07:50;;;;;;;;;;;;;;;;;;5096530;28;19920;-65
2022/05/04 05:10:35;;;;;;;;;;;;;;;;;;5105027;27;19923;-64
2022/05/04 05:13:20;;;;;;;;;;;;;;;;;;5112226;27;19928;-65
2022/05/04 05:16:08;;;;;;;;;;;;;;;;;;5069693;28;19935;-63
2022/05/04 05:18:53;;;;;;;;;;;;;;;;;;5085708;28;19916;-66
2022/05/04 05:21:39;;;;;;;;;;;;;;;;;;5080163;28;19916;-67
2022/05/04 05:24:24;;;;;;;;;;;;;;;;;;5077858;28;19912;-70
2022/05/04 05:27:09;;;;;;;;;;;;;;;;;;5090132;27;19916;-70
2022/05/04 05:29:54;;;;;;;;;;;;;;;;;;5089167;27;20035;-68
2022/05/04 05:32:39;;;;;;;;;;;;;;;;;;5070105;28;20023;-68
2022/05/04 05:35:25;;;;;;;;;;;;;;;;;;5064311;28;20365;-65
2022/05/04 05:38:10;;;;;;;;;;;;;;;;;;5068086;28;20003;-65
2022/05/04 05:40:55;;;;;;;;;;;;;;;;;;5072314;28;19923;-66
2022/05/04 05:43:40;;;;;;;;;;;;;;;;;;5053109;28;19920;-66
2022/05/04 05:46:25;;;;;;;;;;;;;;;;;;5093611;28;19981;-65
2022/05/04 05:49:10;;;;;;;;;;;;;;;;;;5098183;27;19955;-66
2022/05/04 05:51:56;;;;;;;;;;;;;;;;;;5068876;28;20427;-64
2022/05/04 05:54:41;;;;;;;;;;;;;;;;;;5104758;27;19964;-64
2022/05/04 05:57:26;;;;;;;;;;;;;;;;;;5088354;28;19913;-63
2022/05/04 06:00:12;;;;;;;;;;;;;;;;;;5092660;27;20365;-62
2022/05/04 06:02:57;;;;;;;;;;;;;;;;;;5092453;28;19966;-63
2022/05/04 06:05:43;;;;;;;;;;;;;;;;;;5082211;27;20014;-63
2022/05/04 06:08:28;;;;;;;;;;;;;;;;;;5060493;28;20302;-63
2022/05/04 06:11:13;;;;;;;;;;;;;;;;;;5089227;28;19920;-71
2022/05/04 06:13:58;;;;;;;;;;;;;;;;;;5064614;28;20395;-71
2022/05/04 06:16:43;;;;;;;;;;;;;;;;;;5095505;27;19921;-70
2022/05/04 06:19:28;;;;;;;;;;;;;;;;;;5086348;28;19935;-70
2022/05/04 06:22:13;;;;;;;;;;;;;;;;;;5056156;28;19923;-71
2022/05/04 06:24:59;;;;;;;;;;;;;;;;;;5072539;28;20026;-70
2022/05/04 06:27:44;;;;;;;;;;;;;;;;;;5094853;27;19913;-68
2022/05/04 06:36:37;;;;;;;;;;;;;;;;;;5083094;27;19923;-65
2022/05/04 06:39:22;;;;;;;;;;;;;;;;;;5061734;28;19975;-63
2022/05/04 06:42:08;;;;;;;;;;;;;;;;;;5074841;28;20385;-64
2022/05/04 06:44:53;;;;;;;;;;;;;;;;;;5089405;28;20316;-64
2022/05/04 06:47:38;;;;;;;;;;;;;;;;;;5061236;28;20001;-67
2022/05/04 06:50:23;;;;;;;;;;;;;;;;;;5074585;28;19995;-72
2022/05/04 06:53:08;;;;;;;;;;;;;;;;;;5081539;28;19917;-71
2022/05/04 06:55:53;;;;;;;;;;;;;;;;;;5082472;28;20295;-68
2022/05/04 06:58:38;;;;;;;;;;;;;;;;;;5069993;28;19969;-72
2022/05/04 07:01:23;;;;;;;;;;;;;;;;;;5062456;28;20322;-70
2022/05/04 07:04:09;;;;;;;;;;;;;;;;;;5088252;28;20346;-68
2022/05/04 07:06:54;;;;;;;;;;;;;;;;;;5087699;28;19912;-67
2022/05/04 07:09:39;;;;;;;;;;;;;;;;;;5058269;28;20279;-64
2022/05/04 07:12:24;;;;;;;;;;;;;;;;;;5088960;28;19919;-70
2022/05/04 07:15:09;;;;;;;;;;;;;;;;;;5079523;28;20019;-69
2022/05/04 07:17:55;;;;;;;;;;;;;;;;;;5057503;28;19971;-70
2022/05/04 07:20:41;;;;;;;;;;;;;;;;;;5076097;28;20068;-66
2022/05/04 07:23:26;;;;;;;;;;;;;;;;;;5079634;28;19924;-62
2022/05/04 07:26:11;;;;;;;;;;;;;;;;;;5062099;28;19923;-70
2022/05/04 07:28:56;;;;;;;;;;;;;;;;;;5086143;27;20053;-70
2022/05/04 07:31:41;;;;;;;;;;;;;;;;;;5067168;28;20011;-70
2022/05/04 07:34:27;;;;;;;;;;;;;;;;;;5088811;28;20284;-69
2022/05/04 07:37:12;;;;;;;;;;;;;;;;;;5073395;28;19920;-66
2022/05/04 07:43:01;;;;;;;;;;;;;;;;;;5077536;28;19912;-68
2022/05/04 07:45:46;;;;;;;;;;;;;;;;;;5087972;28;19950;-70
2022/05/04 07:48:31;;;;;;;;;;;;;;;;;;5063741;28;19958;-70
2022/05/04 07:51:16;;;;;;;;;;;;;;;;;;5092427;28;20309;-68
2022/05/04 07:54:02;;;;;;;;;;;;;;;;;;5062693;28;20211;-66
2022/05/04 07:56:47;;;;;;;;;;;;;;;;;;5050523;28;19912;-67
2022/05/04 07:59:32;;;;;;;;;;;;;;;;;;5058594;28;19921;-67
2022/05/04 08:05:21;;;;;;;;;;;;;;;;;;5059806;28;19912;-66
2022/05/04 08:08:06;;;;;;;;;;;;;;;;;;5065665;28;19965;-66
2022/05/04 08:10:51;;;;;;;;;;;;;;;;;;5092286;28;19927;-66
2022/05/04 08:13:36;;;;;;;;;;;;;;;;;;5088006;28;19921;-66
2022/05/04 08:16:21;;;;;;;;;;;;;;;;;;5085246;28;19932;-65
2022/05/04 08:19:07;;;;;;;;;;;;;;;;;;5065443;28;19912;-66
2022/05/04 08:21:52;;;;;;;;;;;;;;;;;;5058023;28;19947;-72
2022/05/04 08:24:37;;;;;;;;;;;;;;;;;;5067180;28;19975;-72
2022/05/04 08:27:22;;;;;;;;;;;;;;;;;;5064124;28;19959;-74
2022/05/04 08:30:07;;;;;;;;;;;;;;;;;;5085753;28;19920;-73
2022/05/04 08:32:53;;;;;;;;;;;;;;;;;;5061849;28;19912;-73
2022/05/04 08:35:38;;;;;;;;;;;;;;;;;;5061450;28;19924;-74
2022/05/04 08:38:23;;;;;;;;;;;;;;;;;;5086577;28;19977;-61
2022/05/04 08:41:08;;;;;;;;;;;;;;;;;;5079392;28;19913;-73
2022/05/04 08:43:53;;;;;;;;;;;;;;;;;;5071354;28;19931;-71
2022/05/04 08:46:38;;;;;;;;;;;;;;;;;;5040946;28;20279;-70
2022/05/04 08:49:23;;;;;;;;;;;;;;;;;;5087675;28;19916;-68
2022/05/04 08:52:09;;;;;;;;;;;;;;;;;;5057443;28;20375;-70
2022/05/04 08:54:54;;;;;;;;;;;;;;;;;;5054098;28;19970;-70
2022/05/04 08:57:39;;;;;;;;;;;;;;;;;;5095580;28;19916;-63
2022/05/04 09:00:25;;;;;;;;;;;;;;;;;;5066650;28;20297;-71
2022/05/04 09:03:10;;;;;;;;;;;;;;;;;;5091822;27;20341;-71
2022/05/04 09:05:55;;;;;;;;;;;;;;;;;;5093960;28;19916;-67
2022/05/04 09:08:40;;;;;;;;;;;;;;;;;;5082021;28;19920;-67
2022/05/04 09:11:25;;;;;;;;;;;;;;;;;;5090025;28;20282;-69
2022/05/04 09:14:11;;;;;;;;;;;;;;;;;;5065260;28;20163;-62
2022/05/04 09:16:56;;;;;;;;;;;;;;;;;;5088538;27;19913;-65
2022/05/04 09:19:41;;;;;;;;;;;;;;;;;;5057533;28;20398;-65
2022/05/04 09:22:26;;;;;;;;;;;;;;;;;;5073396;28;19912;-66
2022/05/04 09:25:11;;;;;;;;;;;;;;;;;;5086769;28;19912;-65
2022/05/04 09:27:56;;;;;;;;;;;;;;;;;;5069343;28;19970;-65
2022/05/04 09:30:41;;;;;;;;;;;;;;;;;;5103190;27;19921;-65
2022/05/04 09:33:27;;;;;;;;;;;;;;;;;;5077268;28;19921;-64
2022/05/04 09:36:14;;;;;;;;;;;;;;;;;;5081086;28;19960;-67
2022/05/04 09:45:07;;;;;;;;;;;;;;;;;;5057905;28;19913;-66
2022/05/04 09:47:54;;;;;;;;;;;;;;;;;;5078806;28;20332;-66
2022/05/04 09:50:39;;;;;;;;;;;;;;;;;;5082531;27;19923;-63
2022/05/04 09:53:25;;;;;;;;;;;;;;;;;;5079032;28;20433;-66
2022/05/04 09:56:10;;;;;;;;;;;;;;;;;;5056219;28;19913;-65
2022/05/04 09:58:55;;;;;;;;;;;;;;;;;;5061322;28;20409;-66
2022/05/04 10:01:40;;;;;;;;;;;;;;;;;;5072867;28;19909;-66
2022/05/04 10:04:25;;;;;;;;;;;;;;;;;;5078618;28;20384;-69
2022/05/04 10:07:10;;;;;;;;;;;;;;;;;;5092184;28;19922;-65
2022/05/04 10:09:56;;;;;;;;;;;;;;;;;;5090160;28;19924;-65
2022/05/04 10:12:41;;;;;;;;;;;;;;;;;;5083958;28;20279;-64
2022/05/04 10:15:27;;;;;;;;;;;;;;;;;;5036038;28;20402;-63
2022/05/04 10:18:12;;;;;;;;;;;;;;;;;;5030168;28;19970;-62
2022/05/04 10:21:00;;;;;;;;;;;;;;;;;;5053765;28;20396;-63
2022/05/04 10:23:45;;;;;;;;;;;;;;;;;;5047449;28;19948;-63
2022/05/04 10:26:30;;;;;;;;;;;;;;;;;;5045767;28;20318;-66
2022/05/04 10:32:19;;;;;;;;;;;;;;;;;;5052502;28;19913;-56
2022/05/04 10:35:04;;;;;;;;;;;;;;;;;;5030318;28;20036;-54
2022/05/04 10:37:50;;;;;;;;;;;;;;;;;;5029241;28;20523;-59
2022/05/04 10:40:35;;;;;;;;;;;;;;;;;;5048716;28;19920;-59
2022/05/04 10:43:20;;;;;;;;;;;;;;;;;;5030733;28;19913;-59
2022/05/04 10:46:05;;;;;;;;;;;;;;;;;;5030064;28;20141;-70
2022/05/04 10:48:50;;;;;;;;;;;;;;;;;;5051575;28;20090;-62
2022/05/04 10:51:35;;;;;;;;;;;;;;;;;;5040216;28;19917;-56
2022/05/04 10:54:22;;;;;;;;;;;;;;;;;;5031096;28;19994;-57
2022/05/04 10:57:07;;;;;;;;;;;;;;;;;;5018664;28;19913;-51
2022/05/04 10:59:52;;;;;;;;;;;;;;;;;;5052045;28;20234;-54
2022/05/04 11:02:37;;;;;;;;;;;;;;;;;;5051373;28;20509;-54
2022/05/04 11:05:22;;;;;;;;;;;;;;;;;;5056004;28;19909;-71
2022/05/04 11:08:08;;;;;;;;;;;;;;;;;;5040672;28;19935;-57
2022/05/04 11:10:53;;;;;;;;;;;;;;;;;;5042641;28;19935;-60
2022/05/04 11:13:38;;;;;;;;;;;;;;;;;;5042055;28;19920;-65
2022/05/04 11:16:23;;;;;;;;;;;;;;;;;;5091304;27;19955;-63
2022/05/04 11:19:08;;;;;;;;;;;;;;;;;;5088289;28;19912;-61
2022/05/04 11:21:53;;;;;;;;;;;;;;;;;;5083962;28;19916;-63
2022/05/04 11:24:38;;;;;;;;;;;;;;;;;;5056079;28;19928;-65
2022/05/04 11:27:24;;;;;;;;;;;;;;;;;;5058654;28;20023;-67
2022/05/04 11:30:09;;;;;;;;;;;;;;;;;;5058677;28;20290;-67
2022/05/04 11:32:54;;;;;;;;;;;;;;;;;;5063758;28;19951;-67
2022/05/04 11:35:39;;;;;;;;;;;;;;;;;;5061808;28;20206;-69
2022/05/04 11:38:24;;;;;;;;;;;;;;;;;;5053702;28;19916;-68
2022/05/04 11:41:11;;;;;;;;;;;;;;;;;;5049690;28;20299;-56
2022/05/04 11:43:58;;;;;;;;;;;;;;;;;;5083584;28;19913;-66
2022/05/04 11:46:43;;;;;;;;;;;;;;;;;;5056935;28;20006;-61
2022/05/04 11:49:28;;;;;;;;;;;;;;;;;;5074826;28;19928;-59
2022/05/04 11:52:14;;;;;;;;;;;;;;;;;;5056051;28;20019;-58
2022/05/04 11:54:59;;;;;;;;;;;;;;;;;;5054600;28;19947;-59
2022/05/04 11:57:45;;;;;;;;;;;;;;;;;;5058068;28;19912;-58
2022/05/04 12:00:30;;;;;;;;;;;;;;;;;;5082320;28;20380;-68
2022/05/04 12:03:15;;;;;;;;;;;;;;;;;;5074426;28;19916;-60
2022/05/04 12:06:00;;;;;;;;;;;;;;;;;;5067660;28;19923;-58
2022/05/04 12:08:45;;;;;;;;;;;;;;;;;;5093944;27;20403;-60
2022/05/04 12:11:30;;;;;;;;;;;;;;;;;;5082101;28;20065;-58
2022/05/04 12:14:16;;;;;;;;;;;;;;;;;;5065097;28;19921;-59
2022/05/04 12:17:01;;;;;;;;;;;;;;;;;;5088381;28;20291;-58
2022/05/04 12:19:46;;;;;;;;;;;;;;;;;;5057023;28;20379;-57
2022/05/04 12:22:31;;;;;;;;;;;;;;;;;;5062017;28;20090;-57
2022/05/04 12:25:16;;;;;;;;;;;;;;;;;;5054754;28;20371;-58
2022/05/04 12:28:01;;;;;;;;;;;;;;;;;;5084335;28;19932;-56
2022/05/04 12:33:50;;;;;;;;;;;;;;;;;;5060741;28;19916;-59
2022/05/04 12:36:36;;;;;;;;;;;;;;;;;;5088392;27;19953;-59
2022/05/04 12:39:21;;;;;;;;;;;;;;;;;;5071734;28;20007;-61
2022/05/04 12:42:06;;;;;;;;;;;;;;;;;;5068285;28;19980;-62
2022/05/04 12:44:52;;;;;;;;;;;;;;;;;;5068648;28;19908;-63
2022/05/04 12:47:37;;;;;;;;;;;;;;;;;;5072925;28;20362;-64
2022/05/04 12:50:23;;;;;;;;;;;;;;;;;;5071313;28;19943;-65
2022/05/04 12:53:08;;;;;;;;;;;;;;;;;;5059581;28;19919;-60
2022/05/04 12:59:01;;;;;;;;;;;;;;;;;;5071931;28;19912;-60
2022/05/04 13:01:46;;;;;;;;;;;;;;;;;;5085286;28;19913;-60
2022/05/04 13:04:31;;;;;;;;;;;;;;;;;;5092054;28;19912;-59
2022/05/04 13:07:16;;;;;;;;;;;;;;;;;;5072805;28;19916;-59
2022/05/04 13:10:01;;;;;;;;;;;;;;;;;;5064761;28;19909;-62
2022/05/04 13:12:47;;;;;;;;;;;;;;;;;;5068545;28;19920;-64
2022/05/04 13:15:33;;;;;;;;;;;;;;;;;;5084890;28;19920;-56
2022/05/04 13:18:18;;;;;;;;;;;;;;;;;;5064838;28;20398;-60
2022/05/04 13:21:03;;;;;;;;;;;;;;;;;;5065621;28;19969;-57
2022/05/04 13:23:48;;;;;;;;;;;;;;;;;;5062521;28;20405;-59
2022/05/04 13:26:34;;;;;;;;;;;;;;;;;;5087550;28;19920;-56
2022/05/04 13:29:19;;;;;;;;;;;;;;;;;;5087271;27;20279;-59
2022/05/04 13:32:05;;;;;;;;;;;;;;;;;;5086074;27;20324;-69
2022/05/04 13:34:50;;;;;;;;;;;;;;;;;;5060806;28;19927;-61
2022/05/04 13:37:35;;;;;;;;;;;;;;;;;;5094895;27;20003;-60
2022/05/04 13:40:20;;;;;;;;;;;;;;;;;;5084801;28;19919;-57
2022/05/04 13:43:05;;;;;;;;;;;;;;;;;;5084742;28;20351;-61
2022/05/04 13:45:51;;;;;;;;;;;;;;;;;;5062222;28;20122;-59
2022/05/04 13:48:37;;;;;;;;;;;;;;;;;;5092011;28;19934;-59
2022/05/04 13:54:26;;;;;;;;;;;;;;;;;;5089015;28;20035;-62
2022/05/04 13:57:11;;;;;;;;;;;;;;;;;;5090373;28;19917;-58
2022/05/04 13:59:56;;;;;;;;;;;;;;;;;;5063073;28;19912;-59
2022/05/04 14:02:41;;;;;;;;;;;;;;;;;;5086976;28;19995;-59
2022/05/04 14:05:26;;;;;;;;;;;;;;;;;;5086728;28;19947;-59
2022/05/04 14:08:11;;;;;;;;;;;;;;;;;;5063821;28;20003;-59
2022/05/04 14:11:00;;;;;;;;;;;;;;;;;;5080305;28;20312;-68
2022/05/04 14:13:45;;;;;;;;;;;;;;;;;;5076409;28;20027;-61
2022/05/04 14:16:30;;;;;;;;;;;;;;;;;;5077927;28;19918;-61
2022/05/04 14:19:15;;;;;;;;;;;;;;;;;;5066812;28;19923;-59
2022/05/04 14:22:00;;;;;;;;;;;;;;;;;;5086326;27;20287;-60
2022/05/04 14:24:45;;;;;;;;;;;;;;;;;;5060043;28;19923;-59
2022/05/04 14:27:31;;;;;;;;;;;;;;;;;;5087304;27;20399;-58
2022/05/04 14:30:16;;;;;;;;;;;;;;;;;;5088690;27;19928;-60
2022/05/04 14:33:01;;;;;;;;;;;;;;;;;;5062227;28;19913;-57
2022/05/04 14:35:46;;;;;;;;;;;;;;;;;;5092784;28;20000;-62
2022/05/04 14:38:32;;;;;;;;;;;;;;;;;;5062718;28;20441;-57
2022/05/04 14:41:17;;;;;;;;;;;;;;;;;;5064997;28;19924;-58
2022/05/04 14:44:02;;;;;;;;;;;;;;;;;;5088762;27;19924;-58
2022/05/04 14:46:48;;;;;;;;;;;;;;;;;;5057236;28;19916;-58
2022/05/04 14:49:33;;;;;;;;;;;;;;;;;;5067297;28;19917;-69
2022/05/04 14:52:19;;;;;;;;;;;;;;;;;;5089906;27;19918;-69
2022/05/04 14:55:04;;;;;;;;;;;;;;;;;;5077787;28;19932;-67
2022/05/04 14:57:50;;;;;;;;;;;;;;;;;;5085000;28;20272;-69
2022/05/04 15:00:35;;;;;;;;;;;;;;;;;;5089296;27;19927;-70
2022/05/04 15:06:24;;;;;;;;;;;;;;;;;;5084249;27;20418;-59
2022/05/04 15:09:09;;;;;;;;;;;;;;;;;;5093568;28;19919;-58
2022/05/04 15:11:57;;;;;;;;;;;;;;;;;;5067810;28;20390;-63
2022/05/04 15:14:42;;;;;;;;;;;;;;;;;;5048518;28;19967;-59
2022/05/04 15:17:27;;;;;;;;;;;;;;;;;;5064774;28;20386;-62
2022/05/04 15:20:12;;;;;;;;;;;;;;;;;;5054510;28;20734;-60
2022/05/04 15:22:57;;;;;;;;;;;;;;;;;;5066765;28;19916;-62
2022/05/04 15:25:42;;;;;;;;;;;;;;;;;;5085701;28;19988;-59
2022/05/04 15:28:28;;;;;;;;;;;;;;;;;;5071509;28;19982;-62
2022/05/04 15:31:13;;;;;;;;;;;;;;;;;;5063836;28;19965;-62
2022/05/04 15:33:58;;;;;;;;;;;;;;;;;;5063818;28;19924;-62
2022/05/04 15:36:43;;;;;;;;;;;;;;;;;;5078054;28;19916;-57
2022/05/04 15:39:29;;;;;;;;;;;;;;;;;;5072873;28;20307;-58
2022/05/04 15:42:14;;;;;;;;;;;;;;;;;;5086998;28;19920;-57
2022/05/04 15:44:59;;;;;;;;;;;;;;;;;;5061639;28;20426;-61
2022/05/04 15:47:44;;;;;;;;;;;;;;;;;;5057019;28;19913;-64
2022/05/04 15:50:30;;;;;;;;;;;;;;;;;;5063863;28;19912;-59
2022/05/04 15:53:15;;;;;;;;;;;;;;;;;;5052764;28;20075;-60
2022/05/04 15:56:00;;;;;;;;;;;;;;;;;;5093005;28;19920;-58
2022/05/04 15:58:45;;;;;;;;;;;;;;;;;;5073254;28;20553;-59
2022/05/04 16:01:30;;;;;;;;;;;;;;;;;;5057369;28;20046;-59
2022/05/04 16:04:16;;;;;;;;;;;;;;;;;;5083177;28;19920;-60
2022/05/04 16:07:01;;;;;;;;;;;;;;;;;;5059870;28;19916;-59
2022/05/04 16:09:46;;;;;;;;;;;;;;;;;;5081310;28;20336;-59
2022/05/04 16:12:31;;;;;;;;;;;;;;;;;;5060753;28;19916;-58
2022/05/04 16:15:17;;;;;;;;;;;;;;;;;;5085686;28;19920;-62
2022/05/04 16:24:11;;;;;;;;;;;;;;;;;;5086125;28;19917;-62
2022/05/04 16:26:57;;;;;;;;;;;;;;;;;;5089023;28;19996;-64
2022/05/04 16:29:42;;;;;;;;;;;;;;;;;;5087244;28;19944;-68
2022/05/04 16:32:28;;;;;;;;;;;;;;;;;;5062611;28;20260;-63
2022/05/04 16:35:13;;;;;;;;;;;;;;;;;;5084530;28;20015;-63
2022/05/04 16:37:59;;;;;;;;;;;;;;;;;;5079340;28;20003;-63
2022/05/04 16:40:44;;;;;;;;;;;;;;;;;;5061896;28;20073;-63
2022/05/04 16:43:29;;;;;;;;;;;;;;;;;;5059818;28;19920;-67
2022/05/04 16:46:14;;;;;;;;;;;;;;;;;;5084278;28;20007;-67
2022/05/04 16:49:00;;;;;;;;;;;;;;;;;;5078086;28;19916;-65
2022/05/04 16:51:46;;;;;;;;;;;;;;;;;;5085401;28;19912;-64
2022/05/04 16:54:31;;;;;;;;;;;;;;;;;;5088980;28;20386;-63
2022/05/04 16:57:16;;;;;;;;;;;;;;;;;;5075246;28;19916;-58
2022/05/04 17:00:01;;;;;;;;;;;;;;;;;;5088309;28;20000;-56
2022/05/04 17:02:46;;;;;;;;;;;;;;;;;;5056688;28;19967;-57
2022/05/04 17:05:31;;;;;;;;;;;;;;;;;;5081625;28;20356;-56
2022/05/04 17:08:16;;;;;;;;;;;;;;;;;;5056944;28;19932;-56
2022/05/04 17:11:02;;;;;;;;;;;;;;;;;;5088913;28;19964;-55
2022/05/04 17:13:47;;;;;;;;;;;;;;;;;;5087139;28;19932;-57
2022/05/04 17:16:32;;;;;;;;;;;;;;;;;;5072412;28;19924;-63
2022/05/04 17:19:17;;;;;;;;;;;;;;;;;;5058615;28;19918;-64
2022/05/04 17:22:03;;;;;;;;;;;;;;;;;;5085612;28;19982;-63
2022/05/04 17:24:48;;;;;;;;;;;;;;;;;;5076663;28;19912;-63
2022/05/04 17:27:33;;;;;;;;;;;;;;;;;;5083440;27;19913;-63
2022/05/04 17:30:18;;;;;;;;;;;;;;;;;;5094304;27;19920;-62
2022/05/04 17:39:11;;;;;;;;;;;;;;;;;;5062522;28;19921;-60
2022/05/04 17:41:59;;;;;;;;;;;;;;;;;;5079703;27;20433;-59
2022/05/04 17:44:44;;;;;;;;;;;;;;;;;;5075417;28;20136;-59
2022/05/04 17:47:30;;;;;;;;;;;;;;;;;;5065269;28;20055;-58
2022/05/04 17:50:15;;;;;;;;;;;;;;;;;;5087928;27;19927;-57
2022/05/04 17:53:00;;;;;;;;;;;;;;;;;;5083092;28;19940;-58
2022/05/04 17:55:45;;;;;;;;;;;;;;;;;;5080933;28;20440;-63
2022/05/04 17:58:30;;;;;;;;;;;;;;;;;;5083928;28;19952;-61
2022/05/04 18:01:15;;;;;;;;;;;;;;;;;;5063513;28;20012;-60
2022/05/04 18:04:00;;;;;;;;;;;;;;;;;;5065307;28;19981;-59
2022/05/04 18:06:46;;;;;;;;;;;;;;;;;;5064860;28;20043;-58
2022/05/04 18:09:31;;;;;;;;;;;;;;;;;;5083831;27;20383;-55
2022/05/04 18:12:16;;;;;;;;;;;;;;;;;;5085184;27;20268;-58
2022/05/04 18:15:01;;;;;;;;;;;;;;;;;;5069422;28;19931;-57
2022/05/04 18:17:46;;;;;;;;;;;;;;;;;;5068359;28;19927;-57
2022/05/04 18:20:32;;;;;;;;;;;;;;;;;;5086450;27;20061;-57
2022/05/04 18:23:17;;;;;;;;;;;;;;;;;;5068853;28;20046;-57
2022/05/04 18:26:03;;;;;;;;;;;;;;;;;;5071455;28;20597;-58
2022/05/04 18:28:48;;;;;;;;;;;;;;;;;;5091460;27;19920;-59
2022/05/04 18:31:33;;;;;;;;;;;;;;;;;;5062160;28;19913;-59
2022/05/04 18:34:18;;;;;;;;;;;;;;;;;;5067842;28;22500;-63
2022/05/04 18:37:03;;;;;;;;;;;;;;;;;;5066461;28;19923;-64
2022/05/04 18:39:48;;;;;;;;;;;;;;;;;;5062473;28;19913;-60
2022/05/04 18:42:34;;;;;;;;;;;;;;;;;;5085103;27;19916;-61
2022/05/04 18:45:19;;;;;;;;;;;;;;;;;;5064099;28;19922;-61
2022/05/04 18:48:04;;;;;;;;;;;;;;;;;;5088663;27;20391;-52
2022/05/04 18:50:49;;;;;;;;;;;;;;;;;;5063748;28;19924;-52
2022/05/04 18:53:35;;;;;;;;;;;;;;;;;;5060577;28;19920;-59
2022/05/04 18:56:20;;;;;;;;;;;;;;;;;;5078596;28;19920;-58
2022/05/04 18:59:06;;;;;;;;;;;;;;;;;;5056945;28;19913;-62
2022/05/04 19:01:51;;;;;;;;;;;;;;;;;;5060875;28;19924;-60
2022/05/04 19:04:36;;;;;;;;;;;;;;;;;;5055786;28;20283;-60
2022/05/04 19:07:22;;;;;;;;;;;;;;;;;;5070266;28;20362;-61
2022/05/04 19:10:07;;;;;;;;;;;;;;;;;;5060632;28;19921;-65
2022/05/04 19:12:52;;;;;;;;;;;;;;;;;;5064429;28;20487;-61
2022/05/04 19:15:38;;;;;;;;;;;;;;;;;;5084254;28;20319;-71
2022/05/04 19:18:24;;;;;;;;;;;;;;;;;;5085176;27;19928;-70
2022/05/04 19:21:09;;;;;;;;;;;;;;;;;;5083299;28;19952;-72
2022/05/04 19:23:54;;;;;;;;;;;;;;;;;;5060867;28;19928;-64
2022/05/04 19:26:39;;;;;;;;;;;;;;;;;;5080742;28;20085;-63
2022/05/04 19:29:24;;;;;;;;;;;;;;;;;;5065691;28;20369;-64
2022/05/04 19:32:09;;;;;;;;;;;;;;;;;;5058399;28;20307;-63
2022/05/04 19:34:55;;;;;;;;;;;;;;;;;;5079728;28;19931;-66
2022/05/04 19:37:40;;;;;;;;;;;;;;;;;;5067510;28;19916;-67
2022/05/04 19:40:25;;;;;;;;;;;;;;;;;;5089226;28;19959;-61
2022/05/04 19:43:10;;;;;;;;;;;;;;;;;;5056871;28;19970;-65